Washington, MO

2:46 PM CDT on September 24, 2017 (GMT -0500)
Washington

Weather History for KFYG - July, 2013

Change the Weather History Date:

Thursday, July 4, 2013

  Actual Average (KSUS) Record (KSUS)
Temperature  
Mean Temperature 72 °F -  
Max Temperature 84 °F 86 °F 102 °F (2012)
Min Temperature 59 °F 65 °F 55 °F (2014)
Cooling Degree Days 6    
Growing Degree Days 22 (Base 50)    
Moisture  
Dew Point 62 °F    
Average Humidity 74    
Maximum Humidity 100    
Minimum Humidity 40    
Precipitation  
Precipitation 0.00 in - - ()
Sea Level Pressure  
Sea Level Pressure 30.05 in    
Wind  
Wind Speed 2 mph (SE)    
Max Wind Speed 9 mph    
Max Gust Speed -    
Visibility 10 miles    
Events      
Averages and records for this station are not official NWS values.
T = Trace of Precipitation, MM = Missing Value Source: NWS Daily Summary

Daily Weather History Graph

Daily Weather History Graph

Search for Another Location

Airport or City:

Trip Planner

Search our weather history database for the weather conditions in past years. The results will help you decide how hot, cold, wet, or windy it might be!

Date:

Astronomy

Jul. 04, 2013 Rise Set
Actual Time 5:44 AM CDT 8:31 PM CDT
Civil Twilight 5:13 AM CDT 9:03 PM CDT
Nautical Twilight 4:33 AM CDT 9:42 PM CDT
Astronomical Twilight 3:48 AM CDT 10:27 PM CDT
Moon 3:00 AM CDT (7/4) 5:37 PM CDT (7/4)
Length of Visible Light 15h 49m
Length of Day
14h 46m
Waning Crescent, 11% of the Moon is Illuminated
Jul 4
Waning Crescent
Jul 8
New
Jul 15
First Quarter
Jul 22
Full
Jul 29
Last Quarter

Hourly Weather History & Observations

Time (CDT) Temp. Heat Index Dew Point Humidity Pressure Visibility Wind Dir Wind Speed Gust Speed Precip Events Conditions
12:15 AM 69.8 °F - 62.6 °F 78% 30.06 in 10.0 mi SE 5.8 mph - N/A   Clear
12:35 AM 68.0 °F - 62.6 °F 83% 30.06 in 10.0 mi SE 5.8 mph - N/A   Mostly Cloudy
12:55 AM 68.0 °F - 62.6 °F 83% 30.06 in 10.0 mi SE 5.8 mph - N/A   Mostly Cloudy
1:15 AM 66.2 °F - 62.6 °F 88% 30.06 in 10.0 mi SE 3.5 mph - N/A   Scattered Clouds
1:35 AM 66.2 °F - 62.6 °F 88% 30.06 in 10.0 mi SE 4.6 mph - N/A   Mostly Cloudy
1:55 AM 66.2 °F - 62.6 °F 88% 30.06 in 10.0 mi Calm Calm - N/A   Partly Cloudy
2:15 AM 64.4 °F - 62.6 °F 94% 30.06 in 10.0 mi Calm Calm - N/A   Clear
2:35 AM 64.4 °F - 62.6 °F 94% 30.06 in 10.0 mi Calm Calm - N/A   Clear
2:55 AM 64.4 °F - 62.6 °F 94% 30.06 in 10.0 mi Calm Calm - N/A   Clear
3:15 AM 62.6 °F - 62.6 °F 100% 30.06 in 10.0 mi Calm Calm - N/A   Clear
3:35 AM 64.4 °F - 62.6 °F 94% 30.05 in 10.0 mi Calm Calm - N/A   Clear
3:55 AM 62.6 °F - 60.8 °F 94% 30.06 in 10.0 mi Calm Calm - N/A   Clear
4:15 AM 62.6 °F - 62.6 °F 100% 30.06 in 10.0 mi Calm Calm - N/A   Clear
4:35 AM 60.8 °F - 60.8 °F 100% 30.05 in 9.0 mi Calm Calm - N/A   Clear
4:55 AM 60.8 °F - 60.8 °F 100% 30.05 in 9.0 mi Calm Calm - N/A   Clear
5:15 AM 60.8 °F - 60.8 °F 100% 30.05 in 7.0 mi Calm Calm - N/A   Clear
5:35 AM 59.0 °F - 59.0 °F 100% 30.06 in 5.0 mi Calm Calm - N/A   Clear
5:55 AM 59.0 °F - 59.0 °F 100% 30.07 in 8.0 mi Calm Calm - N/A   Clear
6:15 AM 60.8 °F - 60.8 °F 100% 30.08 in 6.0 mi Calm Calm - N/A   Clear
6:35 AM 60.8 °F - 60.8 °F 100% 30.08 in 6.0 mi Calm Calm - N/A   Clear
6:55 AM 60.8 °F - 60.8 °F 100% 30.08 in 5.0 mi Calm Calm - N/A   Clear
7:15 AM 62.6 °F - 62.6 °F 100% 30.08 in 6.0 mi Calm Calm - N/A   Clear
7:35 AM 64.4 °F - 64.4 °F 100% 30.09 in 8.0 mi Calm Calm - N/A   Clear
7:55 AM 66.2 °F - 64.4 °F 94% 30.09 in 9.0 mi Calm Calm - N/A   Clear
8:15 AM 68.0 °F - 62.6 °F 83% 30.09 in 10.0 mi Calm Calm - N/A   Clear
8:35 AM 68.0 °F - 62.6 °F 83% 30.09 in 10.0 mi ESE 3.5 mph - N/A   Clear
8:55 AM 69.8 °F - 62.6 °F 78% 30.09 in 10.0 mi Calm Calm - N/A   Clear
9:15 AM 71.6 °F - 60.8 °F 69% 30.09 in 10.0 mi Calm Calm - N/A   Clear
9:35 AM 73.4 °F - 62.6 °F 69% 30.09 in 10.0 mi Calm Calm - N/A   Clear
9:55 AM 73.4 °F - 62.6 °F 69% 30.09 in 10.0 mi Calm Calm - N/A   Clear
10:15 AM 75.2 °F - 62.6 °F 65% 30.09 in 10.0 mi Calm Calm - N/A   Clear
10:35 AM 77.0 °F - 62.6 °F 61% 30.09 in 10.0 mi Calm Calm - N/A   Clear
10:55 AM 77.0 °F - 60.8 °F 57% 30.08 in 10.0 mi Calm Calm - N/A   Clear
11:15 AM 78.8 °F - 62.6 °F 57% 30.08 in 10.0 mi Calm Calm - N/A   Clear
11:35 AM 80.6 °F 81.8 °F 62.6 °F 54% 30.08 in 10.0 mi Calm Calm - N/A   Clear
11:55 AM 80.6 °F 81.8 °F 62.6 °F 54% 30.08 in 10.0 mi ESE 5.8 mph - N/A   Clear
12:15 PM 80.6 °F 81.8 °F 62.6 °F 54% 30.07 in 10.0 mi ESE 5.8 mph - N/A   Clear
12:35 PM 80.6 °F 81.8 °F 62.6 °F 54% 30.07 in 10.0 mi SE 4.6 mph - N/A   Clear
12:55 PM 80.6 °F 81.5 °F 60.8 °F 51% 30.07 in 10.0 mi East 4.6 mph - N/A   Clear
1:15 PM 82.4 °F 83.4 °F 62.6 °F 51% 30.07 in 10.0 mi SE 6.9 mph - N/A   Partly Cloudy
1:35 PM 80.6 °F 81.8 °F 62.6 °F 54% 30.06 in 10.0 mi ESE 6.9 mph - N/A   Scattered Clouds
1:55 PM 82.4 °F 83.4 °F 62.6 °F 51% 30.05 in 10.0 mi ESE 4.6 mph - N/A   Partly Cloudy
2:15 PM 82.4 °F 82.5 °F 59.0 °F 45% 30.05 in 10.0 mi SW 4.6 mph - N/A   Partly Cloudy
2:35 PM 82.4 °F 82.5 °F 59.0 °F 45% 30.05 in 10.0 mi Calm Calm - N/A   Partly Cloudy
2:55 PM 82.4 °F 82.9 °F 60.8 °F 48% 30.04 in 10.0 mi SE 8.1 mph - N/A   Partly Cloudy
3:15 PM 82.4 °F 82.9 °F 60.8 °F 48% 30.03 in 10.0 mi SSE 3.5 mph - N/A   Clear
3:35 PM 82.4 °F 82.9 °F 60.8 °F 48% 30.03 in 10.0 mi South 6.9 mph - N/A   Clear
3:55 PM 82.4 °F 83.4 °F 62.6 °F 51% 30.03 in 10.0 mi South 6.9 mph - N/A   Clear
4:15 PM 82.4 °F 82.5 °F 59.0 °F 45% 30.02 in 10.0 mi SSE 9.2 mph - N/A   Clear
4:35 PM 84.2 °F 83.5 °F 57.2 °F 40% 30.02 in 10.0 mi Calm Calm - N/A   Clear
4:55 PM 82.4 °F 82.9 °F 60.8 °F 48% 30.01 in 10.0 mi SSE 5.8 mph - N/A   Scattered Clouds
5:15 PM 82.4 °F 82.9 °F 60.8 °F 48% 30.01 in 10.0 mi Calm Calm - N/A   Partly Cloudy
5:35 PM 82.4 °F 82.9 °F 60.8 °F 48% 30.00 in 10.0 mi SE 5.8 mph - N/A   Clear
5:55 PM 82.4 °F 83.4 °F 62.6 °F 51% 29.99 in 10.0 mi ESE 5.8 mph - N/A   Clear
6:15 PM 82.4 °F 82.9 °F 60.8 °F 48% 30.00 in 10.0 mi SE 6.9 mph - N/A   Partly Cloudy
6:35 PM 82.4 °F 83.4 °F 62.6 °F 51% 30.00 in 10.0 mi ESE 5.8 mph - N/A   Clear
6:55 PM 80.6 °F 81.8 °F 62.6 °F 54% 30.00 in 10.0 mi SE 5.8 mph - N/A   Clear
7:15 PM 80.6 °F 82.3 °F 64.4 °F 58% 30.00 in 10.0 mi Calm Calm - N/A   Clear
7:35 PM 77.0 °F - 64.4 °F 65% 30.01 in 10.0 mi Calm Calm - N/A   Clear
7:55 PM 77.0 °F - 62.6 °F 61% 30.02 in 10.0 mi Calm Calm - N/A   Clear
8:15 PM 73.4 °F - 64.4 °F 73% 30.01 in 10.0 mi Calm Calm - N/A   Clear
8:35 PM 71.6 °F - 64.4 °F 78% 30.01 in 10.0 mi Calm Calm - N/A   Clear
8:55 PM 71.6 °F - 64.4 °F 78% 30.01 in 9.0 mi Calm Calm - N/A   Clear
9:15 PM 71.6 °F - 64.4 °F 78% 30.02 in 10.0 mi Calm Calm - N/A   Clear
9:35 PM 69.8 °F - 64.4 °F 83% 30.03 in 10.0 mi Calm Calm - N/A   Clear
9:55 PM 69.8 °F - 66.2 °F 88% 30.03 in 10.0 mi Calm Calm - N/A   Clear
10:15 PM 68.0 °F - 64.4 °F 88% 30.03 in 10.0 mi Calm Calm - N/A   Clear
10:35 PM 68.0 °F - 64.4 °F 88% 30.03 in 10.0 mi Calm Calm - N/A   Clear
10:55 PM 68.0 °F - 64.4 °F 88% 30.03 in 9.0 mi Calm Calm - N/A   Clear
11:15 PM 68.0 °F - 64.4 °F 88% 30.03 in 9.0 mi Calm Calm - N/A   Clear
11:35 PM 68.0 °F - 64.4 °F 88% 30.03 in 8.0 mi Calm Calm - N/A   Clear
11:55 PM 64.4 °F - 64.4 °F 100% 30.03 in 8.0 mi Calm Calm - N/A   Clear